Hartsfield, Pennsylvania
Current Conditions -  °F | °C
As of 3:35 PM on Friday 28 Nov 2014 (Local Time) from KN38 Reporting Station
Clear Clear  
Wind Chill: 16°   Ceiling: Unl
Heat Index: 25°   Visibility: 10mi
Dew Point:   Wind: 8mph
Humidity: 50%   Direction: 280°W
Pressure: 30.14"   Gusts: NA
Location:  41.5669°N, 77.1227°W
Report Text: KN38 282035Z AUTO 28007KT 10SM CLR M04/M13 A3014 RMK AO2
Loading
Personal Weather Stations






























Interactive Weather Map New forecast layout! Learn more

10-Day Weather Forecast

Advertisements
Track Severe Weather on mobile